Ludlow, Illinois
Current Conditions -  °F | °C
As of 1:50 PM on Monday 22 Dec 2014 (Local Time) from KTIP Reporting Station
Light Rain Light Rain  
Wind Chill: 36°   Ceiling: 500
Heat Index: 42°   Visibility: 2mi
Dew Point: 41°   Wind: 10mph
Humidity: 97%   Direction: 140°SE
Pressure: 29.69"   Gusts: NA
Location:  40.39°N, 88.13°W
Report Text: KTIP 221950Z AUTO 14009KT 2SM -RA OVC005 06/05 A2969 RMK AO2 P0001 T00550050
Loading
Personal Weather Stations






























Interactive Weather Map New forecast layout! Learn more

10-Day Weather Forecast

Advertisements
Track Severe Weather on mobile